Time;durP1;ratioP1;P1;durP2;ratioP2;P2;SDS_P1;SDS_P2;PMS_P1;PMS_P2;Temp;Humidity;BMP_temperature;BMP_pressure;BME280_temperature;BME280_humidity;BME280_pressure;Samples;Min_cycle;Max_cycle;Signal;HPM_P1;HPM_P2
2021/06/25 00:01:07;;;;;;;10.23;6.05;;;11.70;99.90;;;;;;5016500;28;20513;-86
2021/06/25 00:03:34;;;;;;;10.98;6.43;;;11.70;99.90;;;;;;5032883;28;20038;-86
2021/06/25 00:06:01;;;;;;;7.30;6.25;;;11.70;99.90;;;;;;5016356;28;20116;-86
2021/06/25 00:08:28;;;;;;;9.52;6.32;;;11.60;99.90;;;;;;5033396;28;20042;-86
2021/06/25 00:10:55;;;;;;;8.75;6.35;;;11.60;99.90;;;;;;5016955;28;20068;-85
2021/06/25 00:13:21;;;;;;;8.70;6.65;;;11.60;99.90;;;;;;5016294;28;20052;-86
2021/06/25 00:15:48;;;;;;;10.43;6.72;;;11.50;99.90;;;;;;5033237;28;20069;-86
2021/06/25 00:18:15;;;;;;;9.80;6.50;;;11.50;99.90;;;;;;5032521;28;20034;-85
2021/06/25 00:20:42;;;;;;;9.18;6.50;;;11.50;99.90;;;;;;5016355;28;20037;-85
2021/06/25 00:23:09;;;;;;;9.52;6.50;;;11.50;99.90;;;;;;5015838;28;20042;-85
2021/06/25 00:25:35;;;;;;;8.52;5.80;;;11.40;99.90;;;;;;5032577;28;20033;-86
2021/06/25 00:28:03;;;;;;;8.00;6.13;;;11.40;99.90;;;;;;5015647;28;20049;-86
2021/06/25 00:30:30;;;;;;;11.60;6.50;;;11.30;99.90;;;;;;5032427;28;20120;-86
2021/06/25 00:32:57;;;;;;;9.82;6.35;;;11.30;99.90;;;;;;4997018;28;20621;-86
2021/06/25 00:35:23;;;;;;;9.85;7.00;;;11.20;99.90;;;;;;5012725;28;20165;-86
2021/06/25 00:37:50;;;;;;;6.97;6.07;;;11.20;99.90;;;;;;4997135;28;20108;-86
2021/06/25 00:40:17;;;;;;;11.05;6.13;;;11.20;99.90;;;;;;5011425;28;20402;-86
2021/06/25 00:42:44;;;;;;;9.23;6.72;;;11.10;99.90;;;;;;5013138;28;20494;-86
2021/06/25 00:45:15;;;;;;;11.18;6.88;;;11.10;99.90;;;;;;5013005;28;20084;-86
2021/06/25 00:47:48;;;;;;;10.27;6.68;;;11.10;99.90;;;;;;5013424;28;20062;-86
2021/06/25 00:50:19;;;;;;;8.77;6.90;;;11.20;99.90;;;;;;4996104;28;20050;-86
2021/06/25 00:52:50;;;;;;;9.57;6.88;;;11.20;99.90;;;;;;5012308;28;20042;-86
2021/06/25 00:55:17;;;;;;;9.40;6.63;;;11.20;99.90;;;;;;4995999;28;20402;-85
2021/06/25 00:57:44;;;;;;;9.10;5.95;;;11.20;99.90;;;;;;4996384;28;20039;-85
2021/06/25 01:00:12;;;;;;;10.18;7.30;;;11.20;99.90;;;;;;5011783;28;20050;-85
2021/06/25 01:02:39;;;;;;;9.35;7.15;;;11.20;99.90;;;;;;5012036;28;20120;-86
2021/06/25 01:05:08;;;;;;;8.70;7.18;;;11.20;99.90;;;;;;4995613;28;20046;-86
2021/06/25 01:07:35;;;;;;;13.10;7.68;;;11.20;99.90;;;;;;5012045;28;20042;-86
2021/06/25 01:10:08;;;;;;;9.32;7.15;;;11.10;99.90;;;;;;4995998;28;20088;-85
2021/06/25 01:12:35;;;;;;;8.98;7.00;;;11.10;99.90;;;;;;5011730;28;20090;-85
2021/06/25 01:15:03;;;;;;;9.70;6.95;;;11.10;99.90;;;;;;5011543;28;20471;-85
2021/06/25 01:17:35;;;;;;;11.82;7.72;;;11.00;99.90;;;;;;4995698;28;20041;-85
2021/06/25 01:20:11;;;;;;;8.98;7.00;;;11.00;99.90;;;;;;5011945;28;20475;-85
2021/06/25 01:22:40;;;;;;;10.52;7.45;;;10.90;99.90;;;;;;5012090;28;20475;-85
2021/06/25 01:25:21;;;;;;;11.80;6.88;;;10.90;99.90;;;;;;5011950;28;20090;-86
2021/06/25 01:27:54;;;;;;;9.60;6.93;;;10.80;99.90;;;;;;5012193;28;20399;-86
2021/06/25 01:30:24;;;;;;;13.13;7.50;;;10.80;99.90;;;;;;5021292;28;20121;-86
2021/06/25 01:32:52;;;;;;;15.10;7.85;;;10.70;99.90;;;;;;5024189;28;20055;-86
2021/06/25 01:35:19;;;;;;;10.13;7.38;;;10.70;99.90;;;;;;5011342;28;20034;-86
2021/06/25 01:37:47;;;;;;;11.13;7.95;;;10.70;99.90;;;;;;5011725;28;20034;-85
2021/06/25 01:40:16;;;;;;;10.70;7.40;;;10.70;99.90;;;;;;5011216;28;20035;-85
2021/06/25 01:42:44;;;;;;;11.15;8.05;;;10.60;99.90;;;;;;5027926;28;20038;-86
2021/06/25 01:45:14;;;;;;;10.63;7.57;;;10.70;99.90;;;;;;4995126;28;20112;-86
2021/06/25 01:47:43;;;;;;;10.48;7.50;;;10.60;99.90;;;;;;5027608;28;20502;-86
2021/06/25 01:50:17;;;;;;;11.38;8.40;;;10.60;99.90;;;;;;5011076;28;20035;-86
2021/06/25 01:53:07;;;;;;;9.10;7.40;;;10.60;99.90;;;;;;5027628;28;20054;-86
2021/06/25 01:55:41;;;;;;;11.15;7.80;;;10.60;99.90;;;;;;5027417;28;20443;-86
2021/06/25 01:58:13;;;;;;;10.10;7.93;;;10.60;99.90;;;;;;5012224;28;20043;-86
2021/06/25 02:00:55;;;;;;;9.32;8.02;;;10.60;99.90;;;;;;5027345;28;20042;-86
2021/06/25 02:03:22;;;;;;;11.02;8.57;;;10.50;99.90;;;;;;5027120;28;20034;-86
2021/06/25 02:05:49;;;;;;;10.43;8.10;;;10.50;99.90;;;;;;5011135;28;20042;-86
2021/06/25 02:08:16;;;;;;;12.95;8.20;;;10.50;99.90;;;;;;5027043;28;20046;-86
2021/06/25 02:10:43;;;;;;;12.82;7.32;;;10.50;99.90;;;;;;5010893;28;20066;-86
2021/06/25 02:13:10;;;;;;;10.85;7.95;;;10.50;99.90;;;;;;5026936;28;20046;-85
2021/06/25 02:15:37;;;;;;;11.10;8.18;;;10.40;99.90;;;;;;5026627;28;20066;-85
2021/06/25 02:18:03;;;;;;;10.40;7.82;;;10.40;99.90;;;;;;5011044;28;20030;-85
2021/06/25 02:20:31;;;;;;;13.00;8.43;;;10.30;99.90;;;;;;5010495;28;20046;-85
2021/06/25 02:22:58;;;;;;;12.93;8.35;;;10.30;99.90;;;;;;5011153;28;20368;-85
2021/06/25 02:25:25;;;;;;;12.57;8.55;;;10.30;99.90;;;;;;5010220;28;20088;-85
2021/06/25 02:27:52;;;;;;;12.18;8.88;;;10.30;99.90;;;;;;5010692;28;20371;-86
2021/06/25 02:30:18;;;;;;;10.40;8.25;;;10.30;99.90;;;;;;5010472;28;20067;-85
2021/06/25 02:32:45;;;;;;;11.80;8.15;;;10.20;99.90;;;;;;5014026;28;20061;-85
2021/06/25 02:35:15;;;;;;;14.13;9.40;;;10.20;99.90;;;;;;5030222;28;20100;-85
2021/06/25 02:37:42;;;;;;;10.00;7.70;;;10.30;99.90;;;;;;5029789;28;20060;-85
2021/06/25 02:40:10;;;;;;;12.70;8.48;;;10.20;99.90;;;;;;5014243;28;20053;-85
2021/06/25 02:42:37;;;;;;;10.95;8.10;;;10.20;99.90;;;;;;5046318;28;20048;-86
2021/06/25 02:45:05;;;;;;;11.70;9.07;;;10.20;99.90;;;;;;5046591;28;20042;-86
2021/06/25 02:47:33;;;;;;;10.77;8.60;;;10.10;99.90;;;;;;5046077;28;20038;-86
2021/06/25 02:50:05;;;;;;;10.77;8.73;;;10.10;99.90;;;;;;5029893;28;20071;-86
2021/06/25 02:52:33;;;;;;;12.27;8.07;;;10.10;99.90;;;;;;5029236;28;20038;-85
2021/06/25 02:55:00;;;;;;;9.95;8.38;;;10.10;99.90;;;;;;5029603;28;20050;-85
2021/06/25 02:57:27;;;;;;;12.00;8.35;;;10.10;99.90;;;;;;5013702;28;20520;-85
2021/06/25 02:59:57;;;;;;;10.88;8.23;;;10.10;99.90;;;;;;5030508;28;20038;-85
2021/06/25 03:02:24;;;;;;;10.63;8.43;;;10.10;99.90;;;;;;5030357;28;20100;-86
2021/06/25 03:04:51;;;;;;;10.23;8.63;;;10.00;99.90;;;;;;5033792;28;20062;-86
2021/06/25 03:07:18;;;;;;;11.57;9.15;;;10.00;99.90;;;;;;5033757;28;20068;-86
2021/06/25 03:09:44;;;;;;;11.65;8.80;;;10.00;99.90;;;;;;5032794;28;20080;-85
2021/06/25 03:12:11;;;;;;;12.57;8.93;;;10.00;99.90;;;;;;5033635;28;20049;-85
2021/06/25 03:14:39;;;;;;;11.63;8.70;;;10.00;99.90;;;;;;5033110;28;20041;-85
2021/06/25 03:17:06;;;;;;;10.70;8.93;;;10.00;99.90;;;;;;5034004;28;20041;-86
2021/06/25 03:19:33;;;;;;;12.13;9.43;;;10.00;99.90;;;;;;5033675;28;20100;-85
2021/06/25 03:22:00;;;;;;;15.07;10.82;;;9.90;99.90;;;;;;5034122;28;20074;-85
2021/06/25 03:24:27;;;;;;;14.65;10.30;;;9.90;99.90;;;;;;5017521;28;20045;-85
2021/06/25 03:26:54;;;;;;;13.65;9.70;;;9.90;99.90;;;;;;5033455;28;20057;-86
2021/06/25 03:29:20;;;;;;;14.70;9.95;;;9.90;99.90;;;;;;5033542;28;20049;-85
2021/06/25 03:31:47;;;;;;;16.15;11.13;;;9.90;99.90;;;;;;5032630;28;20042;-85
2021/06/25 03:34:14;;;;;;;14.65;11.25;;;9.80;99.90;;;;;;5033452;28;20100;-85
2021/06/25 03:36:41;;;;;;;16.23;11.18;;;9.80;99.90;;;;;;5032988;28;20034;-86
2021/06/25 03:39:08;;;;;;;18.77;11.10;;;9.80;99.90;;;;;;5033197;28;20037;-85
2021/06/25 03:41:35;;;;;;;17.02;10.45;;;9.90;99.90;;;;;;5032850;28;20034;-85
2021/06/25 03:44:02;;;;;;;14.48;10.60;;;9.80;99.90;;;;;;5049535;28;20033;-85
2021/06/25 03:46:30;;;;;;;14.43;10.93;;;9.80;99.90;;;;;;5032864;28;20065;-86
2021/06/25 03:48:57;;;;;;;13.90;10.52;;;9.80;99.90;;;;;;5033017;28;20073;-85
2021/06/25 03:51:24;;;;;;;13.65;11.50;;;9.80;99.90;;;;;;5032218;28;20490;-85
2021/06/25 03:53:52;;;;;;;16.73;11.73;;;9.90;99.90;;;;;;5033217;28;20038;-85
2021/06/25 03:56:19;;;;;;;14.02;11.45;;;9.80;99.90;;;;;;5033358;28;20113;-86
2021/06/25 03:58:48;;;;;;;16.13;12.13;;;9.90;99.90;;;;;;5032863;28;20072;-85
2021/06/25 04:01:17;;;;;;;14.82;11.45;;;9.80;99.90;;;;;;5050492;28;20038;-86
2021/06/25 04:03:44;;;;;;;15.15;11.73;;;9.90;99.90;;;;;;5021681;28;20518;-86
2021/06/25 04:06:11;;;;;;;13.18;10.68;;;9.90;99.90;;;;;;5012444;28;20121;-86
2021/06/25 04:08:38;;;;;;;13.77;11.32;;;9.90;99.90;;;;;;5012918;28;20039;-85
2021/06/25 04:11:05;;;;;;;17.10;11.63;;;9.90;99.90;;;;;;5029279;28;20041;-85
2021/06/25 04:13:35;;;;;;;16.55;11.73;;;10.00;99.90;;;;;;5045073;28;20477;-85
2021/06/25 04:16:02;;;;;;;26.08;11.73;;;10.00;99.90;;;;;;5030973;28;20126;-85
2021/06/25 04:18:29;;;;;;;14.10;11.38;;;10.00;99.90;;;;;;5012428;28;20097;-85
2021/06/25 04:20:59;;;;;;;15.05;11.77;;;10.10;99.90;;;;;;5012929;28;20038;-86
2021/06/25 04:23:26;;;;;;;15.15;11.70;;;10.10;99.90;;;;;;5045327;28;20038;-86
2021/06/25 04:25:53;;;;;;;17.83;12.38;;;10.10;99.90;;;;;;5028998;28;20062;-85
2021/06/25 04:28:20;;;;;;;15.70;11.98;;;10.20;99.90;;;;;;5012970;28;20035;-85
2021/06/25 04:30:47;;;;;;;17.23;12.73;;;10.20;99.90;;;;;;5044787;28;20088;-84
2021/06/25 04:33:14;;;;;;;16.50;12.90;;;10.20;99.90;;;;;;5012130;28;20125;-85
2021/06/25 04:35:49;;;;;;;17.40;13.40;;;10.20;99.90;;;;;;4997645;28;20045;-85
2021/06/25 04:38:16;;;;;;;17.77;14.13;;;10.30;99.90;;;;;;4996564;28;20538;-85
2021/06/25 04:40:44;;;;;;;18.13;13.93;;;10.30;99.90;;;;;;4996355;28;20074;-85
2021/06/25 04:43:13;;;;;;;20.05;14.30;;;10.40;99.90;;;;;;5029592;28;20088;-85
2021/06/25 04:45:42;;;;;;;20.15;15.02;;;10.50;99.90;;;;;;4979907;28;20034;-85
2021/06/25 04:48:11;;;;;;;21.65;16.05;;;10.60;99.90;;;;;;5012530;28;20042;-84
2021/06/25 04:50:40;;;;;;;20.27;14.88;;;10.70;99.90;;;;;;5029259;28;20042;-85
2021/06/25 04:53:07;;;;;;;22.80;15.93;;;10.80;99.90;;;;;;5012297;28;20471;-84
2021/06/25 04:55:41;;;;;;;20.38;16.30;;;10.80;99.90;;;;;;4995671;28;20543;-85
2021/06/25 04:58:17;;;;;;;23.67;17.52;;;10.90;99.90;;;;;;4997175;28;20483;-84
2021/06/25 05:00:46;;;;;;;25.83;17.60;;;11.00;99.90;;;;;;5011661;28;20423;-84
2021/06/25 05:03:13;;;;;;;25.85;19.02;;;11.10;99.90;;;;;;5012131;28;20038;-84
2021/06/25 05:05:42;;;;;;;22.98;17.05;;;11.20;99.90;;;;;;4995487;28;20030;-84
2021/06/25 05:08:10;;;;;;;21.98;16.40;;;11.30;99.90;;;;;;4996639;28;20049;-84
2021/06/25 05:10:39;;;;;;;22.73;16.77;;;11.40;99.90;;;;;;4996258;28;20069;-84
2021/06/25 05:13:07;;;;;;;23.20;17.23;;;11.50;99.90;;;;;;4995908;28;20042;-84
2021/06/25 05:15:34;;;;;;;25.77;16.60;;;11.60;99.90;;;;;;4995819;28;20439;-84
2021/06/25 05:18:21;;;;;;;26.52;18.58;;;11.70;99.90;;;;;;4995571;28;20034;-83
2021/06/25 05:20:50;;;;;;;23.25;18.40;;;11.70;99.90;;;;;;5011119;28;20453;-84
2021/06/25 05:23:18;;;;;;;22.73;16.48;;;11.80;99.90;;;;;;4995589;28;20034;-84
2021/06/25 05:25:46;;;;;;;28.58;17.65;;;11.80;99.90;;;;;;4978784;28;20038;-84
2021/06/25 05:28:14;;;;;;;25.88;18.42;;;12.00;99.90;;;;;;5011264;28;20041;-84
2021/06/25 05:30:40;;;;;;;28.33;18.55;;;12.00;99.90;;;;;;5011054;28;20537;-83
2021/06/25 05:33:07;;;;;;;23.23;17.13;;;12.10;99.90;;;;;;5023902;28;20046;-84
2021/06/25 05:35:35;;;;;;;26.92;18.40;;;12.10;99.90;;;;;;4998902;28;20034;-84
2021/06/25 05:38:06;;;;;;;23.58;17.95;;;12.20;99.90;;;;;;5031030;28;20430;-84
2021/06/25 05:40:33;;;;;;;27.20;18.85;;;12.30;99.90;;;;;;5031114;28;20127;-84
2021/06/25 05:43:03;;;;;;;23.55;18.02;;;12.40;99.90;;;;;;4998694;28;20030;-84
2021/06/25 05:45:30;;;;;;;23.67;18.08;;;12.40;99.90;;;;;;5014799;28;20128;-84
2021/06/25 05:47:57;;;;;;;23.38;17.65;;;12.50;99.90;;;;;;5014315;28;20042;-84
2021/06/25 05:50:24;;;;;;;25.52;18.90;;;12.60;99.90;;;;;;5014986;28;20034;-84
2021/06/25 05:52:51;;;;;;;29.30;19.65;;;12.60;99.90;;;;;;5014449;28;20116;-84
2021/06/25 05:55:18;;;;;;;28.10;20.15;;;12.70;99.90;;;;;;5030979;28;20490;-84
2021/06/25 05:57:47;;;;;;;25.08;18.88;;;12.80;99.90;;;;;;4998553;28;20402;-85
2021/06/25 06:00:16;;;;;;;24.90;18.63;;;12.80;99.90;;;;;;5031124;28;20060;-84
2021/06/25 06:02:43;;;;;;;26.17;19.65;;;13.00;99.90;;;;;;5014114;28;20118;-84
2021/06/25 06:05:11;;;;;;;23.45;18.33;;;13.00;99.90;;;;;;5030470;28;20053;-85
2021/06/25 06:07:38;;;;;;;24.17;19.45;;;13.10;99.90;;;;;;5030351;28;20084;-85
2021/06/25 06:10:06;;;;;;;24.73;17.95;;;13.20;99.90;;;;;;4998061;28;20144;-84
2021/06/25 06:12:33;;;;;;;22.02;17.95;;;13.20;99.90;;;;;;5014222;28;20061;-85
2021/06/25 06:15:00;;;;;;;21.38;18.00;;;13.40;99.90;;;;;;5013443;28;20045;-84
2021/06/25 06:17:27;;;;;;;22.85;17.92;;;13.40;99.90;;;;;;5014059;28;20471;-83
2021/06/25 06:19:55;;;;;;;20.20;16.90;;;13.50;99.90;;;;;;5029949;28;20049;-84
2021/06/25 06:33:36;;;;;;;19.92;16.00;;;13.90;99.90;;;;;;5048471;28;20104;-84
2021/06/25 06:36:11;;;;;;;21.23;15.75;;;14.00;99.90;;;;;;5016136;28;20061;-83
2021/06/25 06:38:38;;;;;;;18.08;15.93;;;14.10;99.90;;;;;;5050976;28;20179;-83
2021/06/25 06:41:04;;;;;;;19.65;15.52;;;14.20;99.90;;;;;;5010687;28;20133;-84
2021/06/25 06:43:31;;;;;;;21.63;15.75;;;14.30;99.90;;;;;;5001579;28;20041;-83
2021/06/25 06:45:58;;;;;;;19.17;15.18;;;14.40;99.90;;;;;;5017294;28;20466;-83
2021/06/25 06:48:25;;;;;;;17.52;14.35;;;14.50;99.90;;;;;;5017808;28;20042;-83
2021/06/25 06:50:52;;;;;;;21.15;15.38;;;14.60;99.90;;;;;;5017280;28;20088;-83
2021/06/25 06:53:18;;;;;;;19.02;14.25;;;14.70;99.90;;;;;;5017755;28;20095;-83
2021/06/25 06:55:45;;;;;;;17.60;14.00;;;14.80;99.90;;;;;;5017929;28;20065;-84
2021/06/25 06:58:13;;;;;;;17.45;14.40;;;14.90;99.90;;;;;;5018057;28;20052;-83
2021/06/25 07:00:39;;;;;;;27.35;22.27;;;15.00;99.90;;;;;;5024480;28;20049;-83
2021/06/25 07:03:06;;;;;;;17.15;14.48;;;15.10;99.90;;;;;;5049642;28;20124;-83
2021/06/25 07:05:33;;;;;;;17.17;14.10;;;15.20;99.90;;;;;;5021170;28;20068;-84
2021/06/25 07:08:00;;;;;;;17.23;13.98;;;15.30;99.90;;;;;;5053270;28;20061;-84
2021/06/25 07:10:27;;;;;;;17.23;13.70;;;15.40;99.90;;;;;;5053213;28;20038;-82
2021/06/25 07:12:53;;;;;;;18.70;15.10;;;15.40;99.90;;;;;;5036551;28;20171;-84
2021/06/25 07:15:20;;;;;;;17.83;14.02;;;15.50;99.90;;;;;;5053380;28;20052;-84
2021/06/25 07:17:47;;;;;;;21.65;17.83;;;15.50;99.90;;;;;;5036919;28;20041;-85
2021/06/25 07:20:14;;;;;;;17.98;14.15;;;15.60;99.90;;;;;;5034723;28;20043;-84
2021/06/25 07:22:41;;;;;;;16.60;14.80;;;15.70;99.90;;;;;;5033236;28;20030;-84
2021/06/25 07:25:08;;;;;;;16.13;12.18;;;15.80;99.90;;;;;;5016972;28;20121;-85
2021/06/25 07:27:36;;;;;;;13.88;10.77;;;15.90;99.90;;;;;;5033634;28;20108;-85
2021/06/25 07:30:07;;;;;;;13.80;11.60;;;15.90;99.90;;;;;;5033322;28;20029;-85
2021/06/25 07:32:34;;;;;;;13.10;10.70;;;16.00;99.90;;;;;;5016570;28;20057;-85
2021/06/25 07:35:01;;;;;;;15.48;12.20;;;16.10;99.90;;;;;;5016426;28;20033;-84
2021/06/25 07:37:28;;;;;;;14.60;11.38;;;16.30;99.90;;;;;;5017530;28;20034;-85
2021/06/25 07:39:54;;;;;;;12.68;9.70;;;16.30;99.90;;;;;;5000815;28;20475;-84
2021/06/25 07:42:22;;;;;;;12.50;9.43;;;16.30;99.90;;;;;;5000941;28;20466;-86
2021/06/25 07:44:50;;;;;;;13.15;10.13;;;16.30;99.90;;;;;;5017181;28;20064;-87
2021/06/25 07:47:17;;;;;;;11.00;9.52;;;16.30;99.90;;;;;;5000599;28;20422;-85
2021/06/25 07:49:44;;;;;;;13.25;10.98;;;16.40;99.90;;;;;;5016406;28;20061;-85
2021/06/25 07:52:11;;;;;;;12.35;11.05;;;16.60;99.90;;;;;;5016579;28;20393;-86
2021/06/25 07:54:58;;;;;;;13.00;10.35;;;16.70;99.90;;;;;;4995898;28;20078;-86
2021/06/25 07:57:25;;;;;;;10.90;8.75;;;16.80;99.90;;;;;;5000818;28;20095;-85
2021/06/25 07:59:53;;;;;;;9.05;7.32;;;16.90;99.90;;;;;;5033155;28;20041;-85
2021/06/25 08:02:20;;;;;;;9.27;7.50;;;17.00;99.90;;;;;;5000027;28;20041;-85
2021/06/25 08:04:47;;;;;;;10.32;8.10;;;17.20;99.90;;;;;;5016448;28;20100;-84
2021/06/25 08:07:15;;;;;;;10.38;6.30;;;17.40;99.90;;;;;;5015929;28;20041;-85
2021/06/25 08:09:43;;;;;;;8.65;5.03;;;17.50;99.90;;;;;;5032527;28;20038;-82
2021/06/25 08:12:12;;;;;;;7.65;4.10;;;17.60;99.90;;;;;;5026738;28;20042;-83
2021/06/25 08:14:39;;;;;;;6.18;4.45;;;17.60;99.90;;;;;;4996584;28;20121;-83
2021/06/25 08:17:07;;;;;;;7.05;3.97;;;17.70;99.90;;;;;;5007705;28;20586;-83
2021/06/25 08:19:34;;;;;;;6.65;4.38;;;17.80;99.90;;;;;;5032289;28;20091;-83
2021/06/25 08:22:02;;;;;;;10.27;6.68;;;17.80;99.90;;;;;;5059605;28;20076;-83
2021/06/25 08:24:30;;;;;;;10.05;5.80;;;17.90;99.90;;;;;;5047875;28;20095;-82
2021/06/25 08:26:57;;;;;;;6.28;5.13;;;18.10;99.90;;;;;;5047934;28;20049;-83
2021/06/25 08:29:24;;;;;;;7.88;5.05;;;18.20;99.90;;;;;;5028503;28;20478;-83
2021/06/25 08:31:51;;;;;;;5.63;3.95;;;18.20;99.90;;;;;;5027203;28;20041;-83
2021/06/25 08:34:18;;;;;;;7.95;4.93;;;18.20;99.90;;;;;;5000605;28;20442;-83
2021/06/25 08:36:44;;;;;;;7.18;5.82;;;18.20;99.90;;;;;;5028448;28;20035;-83
2021/06/25 08:39:11;;;;;;;11.48;5.88;;;18.20;99.90;;;;;;5024655;28;20479;-84
2021/06/25 08:41:38;;;;;;;10.98;6.63;;;18.40;99.90;;;;;;5008148;28;20043;-83
2021/06/25 08:44:06;;;;;;;7.93;5.45;;;18.40;99.90;;;;;;4997212;28;20042;-84
2021/06/25 08:46:33;;;;;;;6.88;4.60;;;18.70;99.90;;;;;;5032074;28;20040;-84
2021/06/25 08:49:05;;;;;;;5.90;4.30;;;19.00;99.90;;;;;;5048396;28;20453;-83
2021/06/25 08:51:32;;;;;;;7.30;5.50;;;19.10;99.90;;;;;;5047999;28;20084;-83
2021/06/25 08:54:00;;;;;;;6.88;4.38;;;19.20;99.90;;;;;;5046884;28;20091;-83
2021/06/25 08:56:33;;;;;;;7.45;4.65;;;19.40;99.90;;;;;;5031211;28;20038;-84
2021/06/25 08:59:01;;;;;;;6.30;4.85;;;19.50;99.90;;;;;;5029976;28;20486;-84
2021/06/25 09:01:35;;;;;;;7.30;4.43;;;19.60;99.90;;;;;;4995053;28;20053;-82
2021/06/25 09:04:02;;;;;;;5.43;4.40;;;19.60;99.90;;;;;;5011998;28;20035;-83
2021/06/25 09:06:29;;;;;;;5.32;4.00;;;19.60;99.90;;;;;;5047729;28;20038;-84
2021/06/25 09:09:13;;;;;;;14.70;5.43;;;19.60;99.90;;;;;;5021691;28;20085;-83
2021/06/25 09:11:43;;;;;;;7.22;4.40;;;19.70;99.90;;;;;;5006696;28;20889;-83
2021/06/25 09:14:11;;;;;;;6.07;3.80;;;19.60;99.90;;;;;;4995656;28;20125;-84
2021/06/25 09:16:39;;;;;;;4.45;3.17;;;19.70;99.90;;;;;;5007521;28;20105;-83
2021/06/25 09:19:12;;;;;;;7.43;4.55;;;19.90;99.90;;;;;;5027633;28;20041;-83
2021/06/25 09:22:00;;;;;;;5.78;3.88;;;20.00;99.90;;;;;;5047042;28;20192;-83
2021/06/25 09:24:28;;;;;;;5.53;3.45;;;20.00;99.90;;;;;;5027735;28;20915;-85
2021/06/25 09:27:00;;;;;;;6.22;3.55;;;20.10;99.90;;;;;;5028025;28;20400;-84
2021/06/25 09:29:29;;;;;;;5.00;3.05;;;20.30;99.90;;;;;;5028272;28;20065;-83
2021/06/25 09:32:10;;;;;;;4.40;3.30;;;20.50;99.90;;;;;;5018464;28;20026;-84
2021/06/25 09:34:56;;;;;;;5.40;3.28;;;20.60;99.60;;;;;;5046948;28;20495;-83
2021/06/25 09:37:23;;;;;;;7.30;3.65;;;20.40;99.90;;;;;;5007742;28;20046;-83
2021/06/25 09:40:01;;;;;;;7.30;3.42;;;20.70;99.90;;;;;;5008691;28;20050;-83
2021/06/25 09:42:28;;;;;;;6.03;4.15;;;20.80;99.90;;;;;;5020655;28;20046;-83
2021/06/25 09:45:00;;;;;;;6.53;4.25;;;20.90;99.90;;;;;;5034286;28;20038;-84
2021/06/25 09:47:51;;;;;;;6.03;4.25;;;20.90;99.90;;;;;;5022487;28;20119;-84
2021/06/25 09:50:27;;;;;;;5.78;3.78;;;21.00;99.90;;;;;;5028780;28;20042;-84
2021/06/25 09:53:00;;;;;;;6.90;4.25;;;21.30;99.90;;;;;;5063317;28;20050;-83
2021/06/25 09:55:29;;;;;;;7.53;4.60;;;21.40;99.90;;;;;;5043832;28;20034;-83
2021/06/25 09:58:34;;;;;;;8.40;5.55;;;21.20;99.90;;;;;;5027016;28;20435;-84
2021/06/25 10:01:25;;;;;;;7.10;5.15;;;21.10;99.90;;;;;;5030434;28;20056;-84
2021/06/25 10:03:58;;;;;;;7.20;4.53;;;21.10;99.90;;;;;;5030226;28;20375;-85
2021/06/25 10:06:29;;;;;;;6.97;4.38;;;21.30;99.90;;;;;;5013976;28;20141;-84
2021/06/25 10:08:56;;;;;;;6.05;4.78;;;21.60;99.90;;;;;;5013964;28;20057;-84
2021/06/25 10:11:31;;;;;;;7.95;4.70;;;21.60;99.90;;;;;;5018363;28;20910;-84
2021/06/25 10:14:01;;;;;;;8.20;5.00;;;21.80;99.90;;;;;;5014613;28;20123;-86
2021/06/25 10:16:28;;;;;;;9.30;7.07;;;21.80;99.90;;;;;;5028808;28;20393;-76
2021/06/25 10:18:58;;;;;;;7.90;6.55;;;21.80;99.90;;;;;;5029950;28;20490;-77
2021/06/25 10:21:28;;;;;;;9.43;6.70;;;21.90;99.90;;;;;;5040460;28;20084;-78
2021/06/25 10:23:57;;;;;;;13.40;8.15;;;21.90;99.90;;;;;;5027652;28;20039;-76
2021/06/25 10:26:24;;;;;;;10.75;7.82;;;21.80;99.90;;;;;;5042243;28;20038;-77
2021/06/25 10:28:53;;;;;;;10.40;7.63;;;21.80;99.90;;;;;;5029532;28;20038;-77
2021/06/25 10:31:22;;;;;;;12.65;8.20;;;21.60;99.90;;;;;;5025739;28;20133;-76
2021/06/25 10:33:51;;;;;;;8.77;6.90;;;21.50;99.90;;;;;;5009931;28;20061;-79
2021/06/25 10:36:22;;;;;;;11.57;7.45;;;21.70;99.90;;;;;;5029850;28;20034;-76
2021/06/25 10:38:49;;;;;;;13.15;7.47;;;21.90;99.90;;;;;;5023109;28;20085;-75
2021/06/25 10:41:18;;;;;;;11.43;8.40;;;22.00;99.90;;;;;;5036200;28;20038;-76
2021/06/25 10:43:48;;;;;;;12.30;8.52;;;22.00;99.90;;;;;;5026870;28;20031;-78
2021/06/25 10:46:36;;;;;;;10.95;7.53;;;22.30;99.90;;;;;;5031960;28;20042;-78
2021/06/25 10:49:15;;;;;;;10.80;7.72;;;22.30;99.70;;;;;;5027622;28;20526;-79
2021/06/25 10:51:44;;;;;;;9.10;7.80;;;22.30;98.90;;;;;;5010120;28;20086;-76
2021/06/25 10:54:15;;;;;;;13.10;8.00;;;22.20;99.30;;;;;;5009604;28;20193;-77
2021/06/25 10:56:48;;;;;;;9.80;6.78;;;22.00;99.20;;;;;;5010031;28;20049;-82
2021/06/25 10:59:29;;;;;;;10.38;6.93;;;22.20;99.80;;;;;;5025999;28;20376;-83
2021/06/25 11:02:00;;;;;;;11.85;7.13;;;22.00;98.70;;;;;;5027872;28;20039;-82
2021/06/25 11:04:44;;;;;;;12.35;7.60;;;21.90;97.60;;;;;;5009812;28;20053;-85
2021/06/25 11:07:38;;;;;;;10.48;7.07;;;21.90;97.70;;;;;;5016492;28;20035;-84
2021/06/25 11:10:07;;;;;;;9.18;7.25;;;21.90;98.30;;;;;;5018716;28;20040;-85
2021/06/25 11:12:38;;;;;;;12.73;7.55;;;21.80;98.10;;;;;;4992952;28;20043;-84
2021/06/25 11:15:05;;;;;;;9.23;6.88;;;21.80;98.80;;;;;;4994172;28;20046;-84
2021/06/25 11:17:52;;;;;;;9.55;6.85;;;21.80;99.20;;;;;;5026667;28;20089;-84
2021/06/25 11:20:21;;;;;;;11.75;7.18;;;21.90;99.60;;;;;;4994548;28;20047;-84
2021/06/25 11:23:06;;;;;;;12.02;6.78;;;21.90;99.90;;;;;;5009713;28;20165;-84
2021/06/25 11:25:37;;;;;;;8.68;7.05;;;21.90;99.20;;;;;;5013015;28;20045;-85
2021/06/25 11:28:15;;;;;;;8.52;6.60;;;21.80;99.00;;;;;;5013597;28;20035;-84
2021/06/25 11:30:51;;;;;;;9.43;6.50;;;21.70;98.60;;;;;;5013229;28;20045;-83
2021/06/25 11:33:26;;;;;;;8.00;6.05;;;21.50;99.10;;;;;;5015561;28;20074;-85
2021/06/25 11:35:54;;;;;;;8.30;6.68;;;21.30;98.00;;;;;;5013362;28;20042;-84
2021/06/25 11:38:57;;;;;;;10.10;6.35;;;21.30;99.30;;;;;;5013081;28;20030;-84
2021/06/25 11:41:29;;;;;;;8.70;5.93;;;21.20;98.80;;;;;;4953659;29;20048;-84
2021/06/25 11:43:58;;;;;;;9.52;6.60;;;21.20;99.60;;;;;;5007224;28;20062;-83
2021/06/25 11:46:26;;;;;;;9.10;6.15;;;21.30;99.20;;;;;;5012748;28;20035;-86
2021/06/25 11:48:59;;;;;;;10.55;6.60;;;21.30;99.20;;;;;;5012622;28;20038;-73
2021/06/25 11:51:40;;;;;;;8.02;6.50;;;21.70;99.20;;;;;;5028971;28;20043;-72
2021/06/25 11:54:09;;;;;;;8.00;5.97;;;21.90;98.40;;;;;;5028385;28;20042;-72
2021/06/25 11:56:37;;;;;;;10.68;6.63;;;22.00;98.60;;;;;;5028847;28;20364;-69
2021/06/25 11:59:09;;;;;;;7.53;5.80;;;22.10;98.60;;;;;;5029149;28;20043;-69
2021/06/25 12:01:56;;;;;;;10.05;6.70;;;22.00;97.90;;;;;;5027475;28;20109;-68
2021/06/25 12:04:34;;;;;;;13.13;5.97;;;21.90;97.00;;;;;;5028227;28;20046;-70
2021/06/25 12:07:03;;;;;;;7.80;5.82;;;21.90;97.00;;;;;;5026913;28;20043;-68
2021/06/25 12:09:50;;;;;;;8.32;5.75;;;21.90;97.80;;;;;;5011326;28;20450;-71
2021/06/25 12:12:26;;;;;;;9.30;6.03;;;21.90;96.90;;;;;;5035922;28;20042;-70
2021/06/25 12:14:55;;;;;;;8.18;6.10;;;22.00;98.20;;;;;;5048422;28;20168;-68
2021/06/25 12:17:24;;;;;;;9.27;6.38;;;22.00;98.20;;;;;;5048383;28;20041;-69
2021/06/25 12:19:56;;;;;;;9.73;6.72;;;22.00;98.40;;;;;;5048956;28;20045;-69
2021/06/25 12:22:23;;;;;;;9.50;6.50;;;22.10;98.00;;;;;;5030331;28;20044;-70
2021/06/25 12:24:52;;;;;;;10.35;6.45;;;22.10;97.80;;;;;;5048962;28;20046;-71
2021/06/25 12:27:32;;;;;;;12.77;7.55;;;22.20;98.40;;;;;;5019462;28;20054;-71
2021/06/25 12:30:13;;;;;;;9.70;6.90;;;22.10;97.90;;;;;;5044736;28;20069;-68
2021/06/25 12:32:40;;;;;;;13.05;8.77;;;22.20;98.30;;;;;;5028315;28;20039;-68
2021/06/25 12:35:08;;;;;;;10.95;7.32;;;22.00;97.90;;;;;;5032639;28;20093;-69
2021/06/25 12:38:06;;;;;;;12.57;8.40;;;22.00;98.30;;;;;;5029669;28;20029;-68
2021/06/25 12:40:43;;;;;;;10.88;7.20;;;22.00;97.90;;;;;;5028168;28;20053;-68
2021/06/25 12:43:13;;;;;;;12.80;7.57;;;22.20;99.00;;;;;;5047899;28;20073;-68
2021/06/25 12:45:52;;;;;;;12.40;7.72;;;22.20;98.10;;;;;;5047604;28;20066;-71
2021/06/25 12:48:24;;;;;;;15.07;8.38;;;22.40;98.20;;;;;;5046490;28;20041;-69
2021/06/25 12:51:01;;;;;;;13.85;9.73;;;22.60;98.30;;;;;;5042332;28;20057;-68
2021/06/25 12:53:31;;;;;;;11.35;8.90;;;22.40;97.70;;;;;;5044496;28;20041;-68
2021/06/25 12:56:00;;;;;;;10.85;8.07;;;22.50;98.20;;;;;;5047863;28;20068;-68
2021/06/25 12:58:31;;;;;;;12.68;9.43;;;22.70;98.90;;;;;;5047687;28;20037;-68
2021/06/25 13:01:03;;;;;;;13.20;9.60;;;22.80;98.70;;;;;;5014473;28;20459;-68
2021/06/25 13:03:30;;;;;;;11.32;9.60;;;22.80;99.00;;;;;;5046589;28;20246;-69